Time;durP1;ratioP1;P1;durP2;ratioP2;P2;SDS_P1;SDS_P2;PMS_P1;PMS_P2;Temp;Humidity;BMP_temperature;BMP_pressure;BME280_temperature;BME280_humidity;BME280_pressure;Samples;Min_cycle;Max_cycle;Signal;HPM_P1;HPM_P2
2022/09/18 00:02:20;;;;;;;;;;;10.20;89.10;;;;;;5058758;28;19923;-80
2022/09/18 00:04:46;;;;;;;;;;;10.20;89.40;;;;;;5060206;28;20510;-79
2022/09/18 00:07:11;;;;;;;;;;;10.20;89.50;;;;;;5057359;28;20472;-79
2022/09/18 00:09:37;;;;;;;;;;;10.20;89.00;;;;;;5062685;28;19972;-78
2022/09/18 00:12:02;;;;;;;;;;;10.20;89.40;;;;;;5061272;28;20271;-78
2022/09/18 00:14:28;;;;;;;;;;;10.30;89.60;;;;;;5053428;28;19917;-79
2022/09/18 00:16:54;;;;;;;;;;;10.10;89.20;;;;;;5054589;28;19921;-79
2022/09/18 00:19:20;;;;;;;;;;;10.20;89.10;;;;;;5052165;28;19924;-80
2022/09/18 00:21:46;;;;;;;;;;;10.10;89.50;;;;;;5051465;28;19917;-79
2022/09/18 00:24:12;;;;;;;;;;;10.10;89.70;;;;;;5057101;28;19923;-80
2022/09/18 00:26:38;;;;;;;;;;;10.10;89.90;;;;;;5053355;28;20289;-79
2022/09/18 00:29:04;;;;;;;;;;;10.10;90.10;;;;;;5054769;28;19927;-79
2022/09/18 00:31:31;;;;;;;;;;;10.10;90.00;;;;;;5055058;28;19924;-80
2022/09/18 00:33:57;;;;;;;;;;;10.00;90.10;;;;;;5059390;28;20843;-80
2022/09/18 00:36:23;;;;;;;;;;;10.00;90.30;;;;;;5058348;28;19920;-79
2022/09/18 00:38:49;;;;;;;;;;;10.00;90.10;;;;;;5053602;28;19916;-80
2022/09/18 00:41:16;;;;;;;;;;;9.90;90.40;;;;;;5060451;28;19912;-80
2022/09/18 00:43:41;;;;;;;;;;;10.00;90.20;;;;;;5052100;28;20645;-80
2022/09/18 00:46:25;;;;;;;;;;;10.00;90.20;;;;;;5049847;28;19916;-79
2022/09/18 00:49:01;;;;;;;;;;;10.00;90.50;;;;;;5055260;28;20336;-79
2022/09/18 00:51:28;;;;;;;;;;;10.00;90.30;;;;;;5053556;28;19936;-79
2022/09/18 00:53:56;;;;;;;;;;;9.80;90.60;;;;;;5053618;28;20864;-79
2022/09/18 00:56:22;;;;;;;;;;;9.70;91.00;;;;;;5052746;28;19916;-79
2022/09/18 00:58:48;;;;;;;;;;;9.60;91.30;;;;;;5054107;28;19916;-79
2022/09/18 01:01:13;;;;;;;;;;;9.60;91.60;;;;;;5056585;28;19977;-79
2022/09/18 01:03:39;;;;;;;;;;;9.50;92.00;;;;;;5065735;28;19916;-80
2022/09/18 01:06:18;;;;;;;;;;;9.40;92.40;;;;;;5055625;28;19970;-80
2022/09/18 01:08:56;;;;;;;;;;;9.30;92.70;;;;;;5057612;28;20008;-79
2022/09/18 01:11:30;;;;;;;;;;;9.20;93.10;;;;;;5063824;28;19932;-79
2022/09/18 01:13:59;;;;;;;;;;;9.20;93.50;;;;;;5052745;28;19917;-79
2022/09/18 01:16:27;;;;;;;;;;;9.10;93.80;;;;;;5050124;28;19917;-80
2022/09/18 01:18:59;;;;;;;;;;;9.10;94.10;;;;;;5053869;28;20020;-79
2022/09/18 01:21:27;;;;;;;;;;;9.10;94.40;;;;;;5051112;28;19920;-80
2022/09/18 01:24:12;;;;;;;;;;;9.30;93.90;;;;;;5052454;28;20031;-79
2022/09/18 01:26:55;;;;;;;;;;;9.40;93.10;;;;;;5059029;28;19916;-79
2022/09/18 01:29:21;;;;;;;;;;;9.30;94.00;;;;;;5054457;28;20297;-80
2022/09/18 01:31:53;;;;;;;;;;;9.20;93.90;;;;;;5052965;28;19924;-79
2022/09/18 01:34:29;;;;;;;;;;;9.10;94.30;;;;;;5054080;28;20337;-79
2022/09/18 01:36:59;;;;;;;;;;;9.20;94.40;;;;;;5062268;28;20023;-79
2022/09/18 01:39:28;;;;;;;;;;;9.10;94.80;;;;;;5052736;28;19924;-79
2022/09/18 01:41:55;;;;;;;;;;;8.90;95.30;;;;;;5054694;28;20058;-79
2022/09/18 01:44:22;;;;;;;;;;;8.90;95.60;;;;;;5085545;27;20339;-79
2022/09/18 01:46:49;;;;;;;;;;;8.80;96.00;;;;;;5054753;28;19917;-79
2022/09/18 01:49:35;;;;;;;;;;;8.70;96.50;;;;;;5055031;28;19935;-79
2022/09/18 01:52:20;;;;;;;;;;;8.70;96.70;;;;;;5051822;28;19947;-80
2022/09/18 01:54:48;;;;;;;;;;;8.60;97.20;;;;;;5050101;28;19944;-79
2022/09/18 01:57:17;;;;;;;;;;;8.60;97.40;;;;;;5050316;28;19924;-79
2022/09/18 01:59:45;;;;;;;;;;;8.50;97.70;;;;;;5052084;28;19925;-80
2022/09/18 02:02:14;;;;;;;;;;;8.50;97.80;;;;;;5063001;28;19916;-79
2022/09/18 02:04:41;;;;;;;;;;;8.50;98.10;;;;;;5065831;28;19920;-79
2022/09/18 02:07:07;;;;;;;;;;;8.50;98.20;;;;;;5054111;28;19967;-79
2022/09/18 02:09:33;;;;;;;;;;;8.50;98.20;;;;;;5059592;28;19913;-80
2022/09/18 02:11:59;;;;;;;;;;;8.50;98.00;;;;;;5052812;28;19921;-80
2022/09/18 02:14:28;;;;;;;;;;;8.50;98.20;;;;;;5049138;28;20390;-79
2022/09/18 02:16:56;;;;;;;;;;;8.40;98.20;;;;;;5053735;28;19999;-80
2022/09/18 02:19:24;;;;;;;;;;;8.50;98.10;;;;;;5053903;28;20395;-79
2022/09/18 02:21:51;;;;;;;;;;;8.50;97.80;;;;;;5049898;28;20011;-80
2022/09/18 02:24:18;;;;;;;;;;;8.50;97.60;;;;;;5051931;28;19921;-78
2022/09/18 02:26:45;;;;;;;;;;;8.50;97.70;;;;;;5052347;28;19916;-79
2022/09/18 02:29:12;;;;;;;;;;;8.60;97.50;;;;;;5053943;28;19920;-79
2022/09/18 02:31:38;;;;;;;;;;;8.60;97.30;;;;;;5049640;28;20151;-80
2022/09/18 02:34:07;;;;;;;;;;;8.60;97.40;;;;;;5053264;28;20479;-80
2022/09/18 02:36:41;;;;;;;;;;;8.60;97.40;;;;;;5050078;28;19971;-79
2022/09/18 02:39:07;;;;;;;;;;;8.50;97.60;;;;;;5057537;28;19916;-79
2022/09/18 02:41:44;;;;;;;;;;;8.40;97.80;;;;;;5059174;28;19970;-79
2022/09/18 02:44:33;;;;;;;;;;;8.40;98.00;;;;;;5053979;28;19921;-79
2022/09/18 02:47:08;;;;;;;;;;;8.50;98.00;;;;;;5054336;28;20402;-79
2022/09/18 02:49:42;;;;;;;;;;;8.20;98.80;;;;;;5048198;28;19916;-79
2022/09/18 02:52:23;;;;;;;;;;;8.10;99.50;;;;;;5051260;28;19978;-79
2022/09/18 02:54:49;;;;;;;;;;;8.10;99.30;;;;;;5052167;28;20417;-79
2022/09/18 02:57:19;;;;;;;;;;;8.20;99.00;;;;;;5052703;28;19924;-80
2022/09/18 02:59:46;;;;;;;;;;;8.10;99.30;;;;;;5052954;28;19966;-79
2022/09/18 03:02:12;;;;;;;;;;;8.20;99.10;;;;;;5067155;28;19946;-79
2022/09/18 03:04:38;;;;;;;;;;;8.10;99.30;;;;;;5061154;28;20019;-79
2022/09/18 03:07:04;;;;;;;;;;;8.10;99.30;;;;;;5056172;28;19990;-79
2022/09/18 03:09:31;;;;;;;;;;;8.30;98.70;;;;;;5063170;28;19924;-79
2022/09/18 03:11:57;;;;;;;;;;;8.30;98.50;;;;;;5064584;28;19928;-78
2022/09/18 03:14:22;;;;;;;;;;;8.30;98.60;;;;;;5056189;28;19921;-80
2022/09/18 03:16:48;;;;;;;;;;;8.30;98.70;;;;;;5056493;28;19927;-79
2022/09/18 03:19:14;;;;;;;;;;;8.10;99.10;;;;;;5085265;27;20430;-79
2022/09/18 03:21:39;;;;;;;;;;;8.20;99.00;;;;;;5050988;28;20527;-78
2022/09/18 03:24:05;;;;;;;;;;;8.10;99.10;;;;;;5054217;28;20012;-80
2022/09/18 03:26:31;;;;;;;;;;;8.10;99.40;;;;;;5060807;28;20468;-79
2022/09/18 03:28:56;;;;;;;;;;;8.10;99.30;;;;;;5057450;28;19944;-79
2022/09/18 03:31:22;;;;;;;;;;;8.10;99.50;;;;;;5065217;28;20723;-78
2022/09/18 03:33:48;;;;;;;;;;;8.00;99.80;;;;;;5054206;28;19917;-80
2022/09/18 03:36:13;;;;;;;;;;;8.00;99.80;;;;;;5057257;28;19920;-79
2022/09/18 03:38:39;;;;;;;;;;;7.90;99.90;;;;;;5054550;28;19931;-79
2022/09/18 03:41:06;;;;;;;;;;;8.00;99.90;;;;;;5062713;28;19927;-79
2022/09/18 03:43:31;;;;;;;;;;;7.90;99.90;;;;;;5054048;28;20026;-79
2022/09/18 03:45:57;;;;;;;;;;;7.80;99.90;;;;;;5062425;28;20407;-79
2022/09/18 03:48:22;;;;;;;;;;;7.80;99.90;;;;;;5057447;28;19924;-79
2022/09/18 03:50:48;;;;;;;;;;;7.70;99.90;;;;;;5085812;27;20002;-79
2022/09/18 03:53:13;;;;;;;;;;;7.70;99.90;;;;;;5089677;27;19916;-78
2022/09/18 03:55:39;;;;;;;;;;;7.70;99.90;;;;;;5059944;28;19997;-79
2022/09/18 03:58:05;;;;;;;;;;;7.70;99.90;;;;;;5051936;28;19916;-79
2022/09/18 04:00:30;;;;;;;;;;;7.70;99.90;;;;;;5053496;28;19936;-79
2022/09/18 04:02:56;;;;;;;;;;;7.80;99.90;;;;;;5054534;28;20025;-79
2022/09/18 04:05:21;;;;;;;;;;;7.90;99.90;;;;;;5057047;28;20396;-80
2022/09/18 04:07:47;;;;;;;;;;;7.80;99.90;;;;;;5057555;28;19916;-79
2022/09/18 04:10:13;;;;;;;;;;;7.80;99.90;;;;;;5067660;28;19931;-79
2022/09/18 04:12:38;;;;;;;;;;;7.80;99.90;;;;;;5055687;28;19925;-79
2022/09/18 04:15:04;;;;;;;;;;;7.70;99.90;;;;;;5053802;28;20031;-79
2022/09/18 04:17:29;;;;;;;;;;;7.70;99.90;;;;;;5050332;28;19923;-79
2022/09/18 04:19:55;;;;;;;;;;;7.70;99.90;;;;;;5054971;28;20388;-79
2022/09/18 04:22:21;;;;;;;;;;;7.60;99.90;;;;;;5054795;28;19920;-79
2022/09/18 04:24:46;;;;;;;;;;;7.70;99.90;;;;;;5083596;27;19917;-78
2022/09/18 04:27:12;;;;;;;;;;;7.60;99.90;;;;;;5055392;28;19921;-78
2022/09/18 04:29:37;;;;;;;;;;;7.50;99.90;;;;;;5057921;28;19917;-79
2022/09/18 04:32:04;;;;;;;;;;;7.50;99.90;;;;;;5052004;28;20348;-79
2022/09/18 04:34:30;;;;;;;;;;;7.40;99.90;;;;;;5056328;28;19962;-79
2022/09/18 04:36:55;;;;;;;;;;;7.40;99.90;;;;;;5054027;28;19917;-79
2022/09/18 04:39:21;;;;;;;;;;;7.30;99.90;;;;;;5087380;27;19942;-79
2022/09/18 04:41:47;;;;;;;;;;;7.40;99.90;;;;;;5058975;28;20385;-78
2022/09/18 04:44:12;;;;;;;;;;;7.30;99.90;;;;;;5054133;28;20376;-78
2022/09/18 04:46:38;;;;;;;;;;;7.30;99.90;;;;;;5056201;28;20000;-79
2022/09/18 04:49:04;;;;;;;;;;;7.20;99.90;;;;;;5059611;28;19971;-79
2022/09/18 04:51:29;;;;;;;;;;;7.20;99.90;;;;;;5051359;28;19966;-79
2022/09/18 04:53:54;;;;;;;;;;;7.20;99.90;;;;;;5053170;28;19916;-79
2022/09/18 04:56:20;;;;;;;;;;;7.10;99.90;;;;;;5053588;28;20021;-80
2022/09/18 04:58:46;;;;;;;;;;;7.10;99.90;;;;;;5056490;28;20663;-79
2022/09/18 05:01:11;;;;;;;;;;;7.00;99.90;;;;;;5057641;28;19936;-79
2022/09/18 05:03:36;;;;;;;;;;;7.10;99.90;;;;;;5068309;28;19920;-78
2022/09/18 05:06:02;;;;;;;;;;;7.00;99.90;;;;;;5066785;28;20435;-78
2022/09/18 05:08:28;;;;;;;;;;;7.10;99.90;;;;;;5059379;28;19917;-79
2022/09/18 05:10:54;;;;;;;;;;;7.10;99.90;;;;;;5065586;28;20604;-78
2022/09/18 05:13:19;;;;;;;;;;;7.00;99.90;;;;;;5084219;27;20495;-78
2022/09/18 05:15:45;;;;;;;;;;;7.10;99.90;;;;;;5055824;28;19952;-79
2022/09/18 05:18:11;;;;;;;;;;;7.10;99.90;;;;;;5061155;28;19966;-79
2022/09/18 05:20:37;;;;;;;;;;;7.10;99.90;;;;;;5056619;28;20020;-78
2022/09/18 05:23:02;;;;;;;;;;;7.10;99.90;;;;;;5051552;28;20359;-78
2022/09/18 05:25:29;;;;;;;;;;;7.00;99.90;;;;;;5058426;28;19916;-79
2022/09/18 05:27:56;;;;;;;;;;;7.10;99.90;;;;;;5064070;28;19913;-79
2022/09/18 05:30:22;;;;;;;;;;;7.00;99.90;;;;;;5062090;28;19929;-79
2022/09/18 05:32:58;;;;;;;;;;;7.00;99.90;;;;;;5059677;28;20075;-79
2022/09/18 05:35:24;;;;;;;;;;;7.10;99.90;;;;;;5072687;28;19923;-78
2022/09/18 05:37:51;;;;;;;;;;;7.10;99.90;;;;;;5065766;28;20208;-80
2022/09/18 05:40:16;;;;;;;;;;;7.10;99.90;;;;;;5056847;28;19917;-78
2022/09/18 05:42:46;;;;;;;;;;;7.10;99.90;;;;;;5066395;28;19913;-78
2022/09/18 05:45:12;;;;;;;;;;;7.10;99.90;;;;;;5062461;28;19924;-78
2022/09/18 05:47:38;;;;;;;;;;;7.10;99.90;;;;;;5063390;28;19923;-78
2022/09/18 05:50:04;;;;;;;;;;;7.10;99.90;;;;;;5062771;28;19913;-79
2022/09/18 05:52:30;;;;;;;;;;;7.40;99.90;;;;;;5063257;28;19927;-78
2022/09/18 05:54:55;;;;;;;;;;;7.70;99.90;;;;;;5055566;28;20767;-79
2022/09/18 05:57:21;;;;;;;;;;;8.50;99.90;;;;;;5063753;28;19955;-79
2022/09/18 05:59:46;;;;;;;;;;;9.20;99.20;;;;;;5063815;28;19920;-79
2022/09/18 06:02:12;;;;;;;;;;;9.60;97.80;;;;;;5064056;28;19916;-79
2022/09/18 06:04:38;;;;;;;;;;;10.00;96.70;;;;;;5061315;28;19942;-79
2022/09/18 06:07:04;;;;;;;;;;;10.20;95.80;;;;;;5062574;28;20309;-79
2022/09/18 06:09:30;;;;;;;;;;;10.20;95.60;;;;;;5063077;28;19912;-79
2022/09/18 06:11:56;;;;;;;;;;;10.50;94.90;;;;;;5062952;28;19920;-79
2022/09/18 06:14:22;;;;;;;;;;;10.90;94.10;;;;;;5066319;28;20305;-78
2022/09/18 06:16:47;;;;;;;;;;;10.90;93.70;;;;;;5063570;28;20484;-77
2022/09/18 06:19:13;;;;;;;;;;;11.20;93.10;;;;;;5064701;28;19920;-76
2022/09/18 06:21:39;;;;;;;;;;;10.90;92.90;;;;;;5063749;28;19917;-77
2022/09/18 06:24:05;;;;;;;;;;;10.60;94.10;;;;;;5073816;28;19919;-77
2022/09/18 06:26:31;;;;;;;;;;;10.90;93.80;;;;;;5084076;28;19916;-76
2022/09/18 06:28:56;;;;;;;;;;;10.90;93.50;;;;;;5084744;28;19912;-77
2022/09/18 06:31:22;;;;;;;;;;;11.10;93.20;;;;;;5083604;28;19974;-76
2022/09/18 06:33:47;;;;;;;;;;;11.20;92.90;;;;;;5083904;28;19916;-76
2022/09/18 06:36:13;;;;;;;;;;;11.60;92.70;;;;;;5081102;28;19992;-76
2022/09/18 06:38:39;;;;;;;;;;;11.60;92.70;;;;;;5083807;28;19916;-76
2022/09/18 06:41:04;;;;;;;;;;;11.50;92.40;;;;;;5084315;28;20399;-76
2022/09/18 06:43:30;;;;;;;;;;;11.70;92.70;;;;;;5067143;28;19918;-76
2022/09/18 06:45:56;;;;;;;;;;;11.70;92.20;;;;;;5076989;28;19922;-77
2022/09/18 06:48:22;;;;;;;;;;;12.00;92.80;;;;;;5065067;28;19960;-76
2022/09/18 06:50:54;;;;;;;;;;;11.80;92.00;;;;;;5063901;28;20011;-77
2022/09/18 06:53:20;;;;;;;;;;;12.00;91.70;;;;;;5044242;28;19912;-77
2022/09/18 06:55:47;;;;;;;;;;;12.40;91.60;;;;;;5043722;28;19924;-77
2022/09/18 06:58:17;;;;;;;;;;;12.30;91.40;;;;;;5043707;28;19921;-77
2022/09/18 07:00:43;;;;;;;;;;;12.50;91.50;;;;;;5041516;28;20490;-77
2022/09/18 07:03:08;;;;;;;;;;;12.60;91.00;;;;;;5075813;28;20005;-77
2022/09/18 07:05:36;;;;;;;;;;;13.10;89.00;;;;;;5049779;28;20007;-77
2022/09/18 07:08:02;;;;;;;;;;;12.90;89.00;;;;;;5079124;28;20632;-77
2022/09/18 07:10:27;;;;;;;;;;;13.10;90.10;;;;;;5083781;28;20019;-77
2022/09/18 07:12:57;;;;;;;;;;;13.50;88.60;;;;;;5083429;28;19919;-76
2022/09/18 07:15:23;;;;;;;;;;;13.40;87.40;;;;;;5083800;28;19916;-76
2022/09/18 07:17:48;;;;;;;;;;;13.40;88.20;;;;;;5072433;28;19912;-77
2022/09/18 07:20:14;;;;;;;;;;;13.30;88.90;;;;;;5043049;28;20009;-77
2022/09/18 07:22:39;;;;;;;;;;;13.70;87.30;;;;;;5043458;28;20402;-76
2022/09/18 07:25:06;;;;;;;;;;;14.20;85.90;;;;;;5098893;28;19916;-77
2022/09/18 07:27:31;;;;;;;;;;;14.00;84.70;;;;;;5064489;28;19914;-76
2022/09/18 07:29:57;;;;;;;;;;;13.90;84.80;;;;;;5063233;28;19920;-78
2022/09/18 07:32:23;;;;;;;;;;;14.20;85.90;;;;;;5066400;28;19938;-76
2022/09/18 07:34:48;;;;;;;;;;;15.10;83.70;;;;;;5056347;28;19927;-77
2022/09/18 07:37:15;;;;;;;;;;;15.00;82.60;;;;;;5075503;28;19913;-77
2022/09/18 07:39:42;;;;;;;;;;;15.20;82.50;;;;;;5054461;28;19912;-77
2022/09/18 07:42:11;;;;;;;;;;;15.90;80.00;;;;;;5059127;28;19917;-77
2022/09/18 07:44:37;;;;;;;;;;;15.90;78.10;;;;;;5051926;28;19916;-77
2022/09/18 07:47:02;;;;;;;;;;;15.70;77.00;;;;;;5052787;28;19915;-77
2022/09/18 07:49:28;;;;;;;;;;;15.50;77.70;;;;;;5085576;28;19919;-77
2022/09/18 07:51:53;;;;;;;;;;;15.70;78.40;;;;;;5065198;28;19925;-77
2022/09/18 07:54:19;;;;;;;;;;;16.00;76.70;;;;;;5082939;28;19916;-77
2022/09/18 07:56:45;;;;;;;;;;;15.90;80.70;;;;;;5081938;28;19931;-77
2022/09/18 07:59:10;;;;;;;;;;;15.70;77.30;;;;;;5054087;28;19917;-77
2022/09/18 08:01:36;;;;;;;;;;;17.80;74.80;;;;;;5053762;28;20353;-77
2022/09/18 08:04:02;;;;;;;;;;;17.70;72.10;;;;;;5074739;28;20039;-77
2022/09/18 08:06:28;;;;;;;;;;;18.20;72.30;;;;;;5059601;28;19922;-78
2022/09/18 08:08:54;;;;;;;;;;;19.10;67.80;;;;;;5065751;28;19912;-78
2022/09/18 08:11:19;;;;;;;;;;;18.80;66.70;;;;;;5066279;28;20027;-77
2022/09/18 08:13:48;;;;;;;;;;;19.20;66.30;;;;;;5066208;28;19954;-77
2022/09/18 08:16:14;;;;;;;;;;;19.90;68.10;;;;;;5066130;28;19929;-77
2022/09/18 08:18:39;;;;;;;;;;;19.80;65.20;;;;;;5066122;28;19919;-77
2022/09/18 08:21:05;;;;;;;;;;;19.80;62.90;;;;;;5066368;28;19938;-77
2022/09/18 08:23:31;;;;;;;;;;;19.20;63.70;;;;;;5065848;28;20362;-78
2022/09/18 08:25:59;;;;;;;;;;;19.70;65.20;;;;;;5066041;28;19913;-77
2022/09/18 08:28:25;;;;;;;;;;;20.30;62.80;;;;;;5066480;28;19997;-77
2022/09/18 08:30:50;;;;;;;;;;;20.30;66.00;;;;;;5066575;28;19974;-77
2022/09/18 08:33:16;;;;;;;;;;;20.30;61.90;;;;;;5066084;28;19913;-77
2022/09/18 08:35:42;;;;;;;;;;;20.70;60.40;;;;;;5066441;28;19912;-77
2022/09/18 08:38:10;;;;;;;;;;;20.70;59.50;;;;;;5066070;28;20673;-77
2022/09/18 08:40:41;;;;;;;;;;;20.40;58.70;;;;;;5065645;28;19913;-77
2022/09/18 08:43:12;;;;;;;;;;;21.20;58.80;;;;;;5065816;28;19923;-77
2022/09/18 08:45:49;;;;;;;;;;;20.60;57.40;;;;;;5065784;28;19990;-77
2022/09/18 08:48:17;;;;;;;;;;;21.00;56.40;;;;;;5065805;28;19913;-77
2022/09/18 08:50:50;;;;;;;;;;;21.60;55.80;;;;;;5063780;28;20431;-77
2022/09/18 08:53:19;;;;;;;;;;;21.40;55.60;;;;;;5053250;28;20394;-77
2022/09/18 08:55:46;;;;;;;;;;;21.70;54.10;;;;;;5065707;28;20267;-77
2022/09/18 08:58:27;;;;;;;;;;;21.30;54.40;;;;;;5045818;28;19916;-79
2022/09/18 09:00:55;;;;;;;;;;;22.00;54.50;;;;;;5045226;28;19924;-77
2022/09/18 09:03:23;;;;;;;;;;;22.80;54.70;;;;;;5072141;28;19923;-77
2022/09/18 09:06:00;;;;;;;;;;;22.80;53.00;;;;;;5075845;28;19977;-78
2022/09/18 09:08:29;;;;;;;;;;;23.00;53.40;;;;;;5075346;28;19959;-77
2022/09/18 09:11:15;;;;;;;;;;;22.60;53.60;;;;;;5085133;28;19916;-77
2022/09/18 09:13:41;;;;;;;;;;;23.10;52.50;;;;;;5083629;28;19919;-78
2022/09/18 09:16:06;;;;;;;;;;;23.40;53.00;;;;;;5076479;28;19917;-78
2022/09/18 09:18:44;;;;;;;;;;;23.30;52.30;;;;;;5057760;28;19962;-78
2022/09/18 09:21:23;;;;;;;;;;;22.40;52.50;;;;;;5064717;28;19912;-78
2022/09/18 09:24:04;;;;;;;;;;;22.60;51.90;;;;;;5064790;28;19912;-78
2022/09/18 09:26:31;;;;;;;;;;;23.10;52.20;;;;;;5065312;28;20468;-78
2022/09/18 09:29:09;;;;;;;;;;;22.90;52.20;;;;;;5063660;28;19924;-79
2022/09/18 09:31:36;;;;;;;;;;;23.20;51.40;;;;;;5084996;28;20335;-79
2022/09/18 09:34:13;;;;;;;;;;;22.60;50.90;;;;;;5078713;28;19923;-79
2022/09/18 09:36:40;;;;;;;;;;;23.60;50.70;;;;;;5064720;28;19995;-79
2022/09/18 09:39:17;;;;;;;;;;;24.00;50.60;;;;;;5064579;28;20296;-79
2022/09/18 09:41:42;;;;;;;;;;;22.90;49.30;;;;;;5064500;28;19966;-79
2022/09/18 09:44:20;;;;;;;;;;;22.80;51.10;;;;;;5065029;28;19920;-79
2022/09/18 09:46:48;;;;;;;;;;;21.90;48.60;;;;;;5064708;28;19999;-79
2022/09/18 09:49:37;;;;;;;;;;;20.90;51.40;;;;;;5064895;28;19970;-79
2022/09/18 09:52:16;;;;;;;;;;;20.70;53.00;;;;;;5032374;28;19932;-79
2022/09/18 09:54:41;;;;;;;;;;;20.10;51.50;;;;;;5041431;28;19924;-79
2022/09/18 09:57:31;;;;;;;;;;;20.00;51.90;;;;;;5036974;28;19916;-79
2022/09/18 10:00:01;;;;;;;;;;;19.60;52.10;;;;;;5023643;28;19935;-80
2022/09/18 10:02:31;;;;;;;;;;;19.60;52.80;;;;;;5021129;28;19917;-80
2022/09/18 10:04:59;;;;;;;;;;;19.40;52.50;;;;;;5022986;28;19936;-80
2022/09/18 10:07:36;;;;;;;;;;;19.40;51.70;;;;;;5021312;28;20060;-80
2022/09/18 10:10:21;;;;;;;;;;;19.30;52.60;;;;;;5021439;28;20653;-79
2022/09/18 10:12:59;;;;;;;;;;;19.30;51.70;;;;;;5020322;28;19913;-79
2022/09/18 10:15:30;;;;;;;;;;;19.80;53.60;;;;;;5032955;28;19956;-79
2022/09/18 10:17:58;;;;;;;;;;;19.60;53.60;;;;;;5033067;28;19952;-79
2022/09/18 10:20:27;;;;;;;;;;;19.40;51.70;;;;;;5041349;28;19916;-80
2022/09/18 10:22:54;;;;;;;;;;;19.50;52.70;;;;;;5040781;28;19913;-79
2022/09/18 10:25:25;;;;;;;;;;;19.40;53.10;;;;;;5040864;28;19916;-80
2022/09/18 10:27:50;;;;;;;;;;;19.70;53.70;;;;;;5040856;28;19963;-80
2022/09/18 10:30:16;;;;;;;;;;;19.80;56.20;;;;;;5082894;28;19920;-80
2022/09/18 10:32:41;;;;;;;;;;;19.60;51.70;;;;;;5068708;28;19912;-79
2022/09/18 10:35:25;;;;;;;;;;;19.40;52.00;;;;;;5081162;28;20475;-80
2022/09/18 10:37:50;;;;;;;;;;;19.10;52.20;;;;;;5053382;28;20019;-80
2022/09/18 10:40:29;;;;;;;;;;;19.40;50.90;;;;;;5078596;28;20007;-79
2022/09/18 10:42:55;;;;;;;;;;;19.60;51.90;;;;;;5068028;28;19920;-79
2022/09/18 10:45:22;;;;;;;;;;;19.20;51.30;;;;;;5075207;28;20296;-80
2022/09/18 10:47:48;;;;;;;;;;;18.90;52.80;;;;;;5070126;28;19919;-79
2022/09/18 10:50:14;;;;;;;;;;;19.10;51.90;;;;;;5068257;28;19921;-79
2022/09/18 10:52:39;;;;;;;;;;;19.20;53.10;;;;;;5057367;28;19920;-80
2022/09/18 10:55:05;;;;;;;;;;;19.30;53.60;;;;;;5095520;28;19956;-79
2022/09/18 10:57:32;;;;;;;;;;;19.30;54.90;;;;;;5062172;28;19962;-79
2022/09/18 10:59:58;;;;;;;;;;;19.10;54.50;;;;;;5060986;28;19920;-79
2022/09/18 11:02:25;;;;;;;;;;;19.30;55.90;;;;;;5062353;28;19927;-79
2022/09/18 11:04:52;;;;;;;;;;;19.20;54.80;;;;;;5053635;28;19920;-79
2022/09/18 11:07:18;;;;;;;;;;;19.10;54.10;;;;;;5062553;28;19965;-79
2022/09/18 11:09:45;;;;;;;;;;;19.20;56.30;;;;;;5076573;28;20762;-79
2022/09/18 11:12:15;;;;;;;;;;;19.10;53.90;;;;;;5062094;28;19924;-80
2022/09/18 11:14:43;;;;;;;;;;;18.90;53.80;;;;;;5062300;28;19916;-78
2022/09/18 11:17:26;;;;;;;;;;;18.80;52.30;;;;;;5059868;28;19917;-80
2022/09/18 11:19:54;;;;;;;;;;;18.80;52.50;;;;;;5083146;28;19939;-80
2022/09/18 11:22:34;;;;;;;;;;;19.00;53.70;;;;;;5079707;28;19916;-80
2022/09/18 11:25:20;;;;;;;;;;;19.30;53.00;;;;;;5086376;28;19959;-79
2022/09/18 11:27:50;;;;;;;;;;;19.10;52.60;;;;;;5055287;28;19920;-80
2022/09/18 11:30:21;;;;;;;;;;;18.70;53.70;;;;;;5072828;28;19920;-81
2022/09/18 11:32:47;;;;;;;;;;;18.60;52.60;;;;;;5063945;28;19936;-81
2022/09/18 11:35:15;;;;;;;;;;;18.70;52.40;;;;;;5059411;28;19927;-81
2022/09/18 11:38:06;;;;;;;;;;;18.80;52.30;;;;;;5062651;28;20460;-81
2022/09/18 11:40:41;;;;;;;;;;;18.60;52.60;;;;;;5046455;28;19996;-81
2022/09/18 11:43:14;;;;;;;;;;;18.80;52.80;;;;;;5050057;28;20462;-80
2022/09/18 11:45:44;;;;;;;;;;;18.80;53.30;;;;;;5056735;28;19912;-80
2022/09/18 11:48:16;;;;;;;;;;;19.00;54.70;;;;;;5069748;28;19912;-81
2022/09/18 11:50:42;;;;;;;;;;;19.00;52.70;;;;;;5070182;28;19928;-81
2022/09/18 11:53:16;;;;;;;;;;;19.10;52.30;;;;;;5075155;28;19920;-80
2022/09/18 11:56:00;;;;;;;;;;;19.00;51.20;;;;;;5065737;28;19916;-81
2022/09/18 11:58:35;;;;;;;;;;;18.70;50.60;;;;;;5052353;28;19943;-79
2022/09/18 12:01:19;;;;;;;;;;;18.50;51.80;;;;;;5059982;28;19931;-81
2022/09/18 12:03:48;;;;;;;;;;;18.80;54.00;;;;;;5076057;28;20390;-80
2022/09/18 12:06:17;;;;;;;;;;;18.90;52.90;;;;;;5053764;28;19920;-80
2022/09/18 12:08:46;;;;;;;;;;;19.10;53.40;;;;;;5066009;28;19916;-81
2022/09/18 12:11:14;;;;;;;;;;;19.20;52.00;;;;;;5056154;28;19929;-80
2022/09/18 12:13:56;;;;;;;;;;;19.00;51.40;;;;;;5050890;28;20397;-79
2022/09/18 12:16:24;;;;;;;;;;;18.90;51.50;;;;;;5051834;28;19912;-80
2022/09/18 12:18:50;;;;;;;;;;;18.90;51.70;;;;;;5048091;28;20683;-80
2022/09/18 12:21:18;;;;;;;;;;;19.10;53.00;;;;;;5050717;28;19917;-81
2022/09/18 12:23:43;;;;;;;;;;;18.90;50.70;;;;;;5045622;28;20031;-80
2022/09/18 12:26:24;;;;;;;;;;;19.00;52.90;;;;;;5043913;28;19913;-81
2022/09/18 12:28:56;;;;;;;;;;;19.10;53.60;;;;;;5045303;28;20379;-81
2022/09/18 12:31:29;;;;;;;;;;;19.10;52.50;;;;;;5048300;28;19925;-81
2022/09/18 12:34:01;;;;;;;;;;;19.10;51.70;;;;;;5045335;28;19928;-81
2022/09/18 12:36:27;;;;;;;;;;;19.10;50.40;;;;;;5076038;28;19912;-81
2022/09/18 12:39:10;;;;;;;;;;;19.20;49.70;;;;;;5046720;28;19927;-80
2022/09/18 12:41:55;;;;;;;;;;;19.10;51.80;;;;;;5045371;28;19920;-80
2022/09/18 12:44:30;;;;;;;;;;;19.20;50.30;;;;;;5046037;28;20016;-81
2022/09/18 12:46:55;;;;;;;;;;;19.20;46.20;;;;;;5048903;28;20587;-81
2022/09/18 12:49:24;;;;;;;;;;;19.30;47.80;;;;;;5077761;28;19917;-80
2022/09/18 12:51:49;;;;;;;;;;;19.20;48.60;;;;;;5049729;28;19932;-80
2022/09/18 12:54:17;;;;;;;;;;;19.20;48.60;;;;;;5046141;28;19917;-81
2022/09/18 12:56:43;;;;;;;;;;;19.20;47.80;;;;;;5047439;28;20393;-80
2022/09/18 12:59:08;;;;;;;;;;;19.20;47.80;;;;;;5074659;28;19924;-81
2022/09/18 13:01:54;;;;;;;;;;;19.20;46.60;;;;;;5045668;28;19928;-81
2022/09/18 13:04:23;;;;;;;;;;;19.20;47.70;;;;;;5048303;28;20019;-80
2022/09/18 13:06:57;;;;;;;;;;;19.30;46.80;;;;;;5077950;28;20036;-80
2022/09/18 13:09:34;;;;;;;;;;;19.50;46.20;;;;;;5044755;28;19998;-81
2022/09/18 13:12:12;;;;;;;;;;;19.40;44.40;;;;;;5052342;28;19925;-80
2022/09/18 13:14:43;;;;;;;;;;;19.40;46.20;;;;;;5043320;28;19913;-81
2022/09/18 13:17:17;;;;;;;;;;;19.20;48.60;;;;;;5063715;28;19975;-82
2022/09/18 13:19:52;;;;;;;;;;;19.50;47.70;;;;;;5049216;28;19924;-80
2022/09/18 13:22:18;;;;;;;;;;;19.40;43.60;;;;;;5055135;28;19924;-80
2022/09/18 13:24:45;;;;;;;;;;;19.40;46.30;;;;;;5056724;28;19921;-79
2022/09/18 13:27:15;;;;;;;;;;;19.40;48.60;;;;;;5062807;28;19971;-80
2022/09/18 13:29:52;;;;;;;;;;;19.60;48.00;;;;;;5058992;28;19916;-82
2022/09/18 13:32:18;;;;;;;;;;;19.50;48.00;;;;;;5063828;28;19917;-81
2022/09/18 13:35:05;;;;;;;;;;;19.50;50.10;;;;;;5064325;28;19927;-81
2022/09/18 13:37:30;;;;;;;;;;;19.60;48.30;;;;;;5062619;28;19925;-81
2022/09/18 13:40:00;;;;;;;;;;;19.70;50.00;;;;;;5096260;28;20446;-81
2022/09/18 13:42:27;;;;;;;;;;;19.70;50.00;;;;;;5044679;28;20452;-81
2022/09/18 13:44:52;;;;;;;;;;;19.80;47.40;;;;;;5063903;28;19962;-82
2022/09/18 13:47:18;;;;;;;;;;;19.90;46.00;;;;;;5062606;28;19912;-81
2022/09/18 13:49:50;;;;;;;;;;;19.70;46.60;;;;;;5063371;28;19923;-82
2022/09/18 13:52:28;;;;;;;;;;;19.90;46.10;;;;;;5064438;28;20705;-81
2022/09/18 13:55:11;;;;;;;;;;;19.80;48.80;;;;;;5064681;28;19912;-81
2022/09/18 13:57:37;;;;;;;;;;;19.90;49.70;;;;;;5063826;28;19920;-81
2022/09/18 14:00:18;;;;;;;;;;;19.90;48.40;;;;;;5061516;28;19931;-81
2022/09/18 14:02:44;;;;;;;;;;;20.00;49.40;;;;;;5029300;28;19921;-82
2022/09/18 14:05:28;;;;;;;;;;;19.90;47.90;;;;;;5017630;28;20378;-80
2022/09/18 14:07:55;;;;;;;;;;;20.00;48.00;;;;;;5027706;28;20381;-82
2022/09/18 14:10:23;;;;;;;;;;;20.00;49.30;;;;;;5022896;28;19916;-81
2022/09/18 14:13:04;;;;;;;;;;;19.90;49.00;;;;;;5008182;28;19917;-82
2022/09/18 14:15:30;;;;;;;;;;;20.00;52.10;;;;;;5030966;28;19966;-81
2022/09/18 14:18:04;;;;;;;;;;;20.00;48.00;;;;;;5040030;28;19925;-81
2022/09/18 14:20:30;;;;;;;;;;;20.10;50.00;;;;;;5043324;28;19967;-81
2022/09/18 14:23:16;;;;;;;;;;;20.10;49.30;;;;;;5043431;28;19931;-81
2022/09/18 14:25:45;;;;;;;;;;;20.10;50.30;;;;;;5028854;28;19971;-81
2022/09/18 14:28:13;;;;;;;;;;;20.10;50.80;;;;;;5025810;28;19924;-81
2022/09/18 14:30:38;;;;;;;;;;;20.10;49.90;;;;;;5024013;28;20286;-81
2022/09/18 14:33:04;;;;;;;;;;;20.10;50.10;;;;;;5033328;28;19916;-82